Time;durP1;ratioP1;P1;durP2;ratioP2;P2;SDS_P1;SDS_P2;PMS_P1;PMS_P2;Temp;Humidity;BMP_temperature;BMP_pressure;BME280_temperature;BME280_humidity;BME280_pressure;Samples;Min_cycle;Max_cycle;Signal;HPM_P1;HPM_P2
2023/12/13 00:00:57;;;;;;;29.60;19.20;;;;;;;4.59;92.39;99500.50;5113921;27;20228;-56
2023/12/13 00:03:25;;;;;;;28.70;19.17;;;;;;;4.60;92.01;99503.06;5113767;27;20655;-55
2023/12/13 00:05:54;;;;;;;29.03;18.97;;;;;;;4.62;91.87;99494.56;5115574;27;20208;-56
2023/12/13 00:08:22;;;;;;;28.00;18.90;;;;;;;4.63;91.66;99497.09;5122056;27;20655;-55
2023/12/13 00:10:50;;;;;;;28.77;18.43;;;;;;;4.65;91.95;99500.53;5114544;27;20219;-52
2023/12/13 00:13:18;;;;;;;28.80;18.23;;;;;;;4.65;91.55;99490.31;5113863;27;20212;-55
2023/12/13 00:15:46;;;;;;;27.30;19.23;;;;;;;4.63;91.74;99486.91;5115407;27;20220;-56
2023/12/13 00:18:14;;;;;;;26.03;17.83;;;;;;;4.62;91.24;99492.00;5117022;27;20550;-55
2023/12/13 00:20:42;;;;;;;28.80;18.50;;;;;;;4.60;91.63;99485.22;5113650;27;20204;-56
2023/12/13 00:23:11;;;;;;;26.77;18.47;;;;;;;4.60;91.74;99490.31;5113772;28;20211;-54
2023/12/13 00:25:39;;;;;;;27.37;18.93;;;;;;;4.62;91.95;99482.66;5119826;27;20192;-54
2023/12/13 00:28:08;;;;;;;28.97;17.87;;;;;;;4.61;91.78;99486.06;5124939;27;20203;-53
2023/12/13 00:30:35;;;;;;;27.00;17.23;;;;;;;4.62;91.65;99480.09;5115096;27;20632;-58
2023/12/13 00:33:03;;;;;;;25.10;16.80;;;;;;;4.61;91.63;99480.97;5112248;27;20226;-56
2023/12/13 00:35:31;;;;;;;27.10;18.30;;;;;;;4.57;91.65;99474.16;5112165;27;20673;-57
2023/12/13 00:37:59;;;;;;;27.53;17.80;;;;;;;4.59;91.57;99474.97;5113078;27;20245;-55
2023/12/13 00:40:28;;;;;;;26.03;18.60;;;;;;;4.61;91.68;99473.31;5114771;27;20477;-55
2023/12/13 00:42:56;;;;;;;28.27;17.93;;;;;;;4.63;91.68;99484.34;5108578;27;20238;-57
2023/12/13 00:45:24;;;;;;;26.30;18.27;;;;;;;4.64;91.39;99478.41;5113441;28;20204;-55
2023/12/13 00:47:52;;;;;;;26.80;18.93;;;;;;;4.63;91.78;99481.78;5122192;27;20260;-54
2023/12/13 00:50:20;;;;;;;28.70;18.53;;;;;;;4.65;91.94;99487.78;5114059;27;20218;-53
2023/12/13 00:52:48;;;;;;;28.53;19.20;;;;;;;4.66;91.66;99486.91;5116077;27;20708;-52
2023/12/13 00:55:16;;;;;;;32.03;20.43;;;;;;;4.64;91.31;99486.06;5105035;27;20574;-55
2023/12/13 00:57:45;;;;;;;27.57;18.90;;;;;;;4.60;91.44;99481.78;5111671;27;20315;-54
2023/12/13 01:00:14;;;;;;;30.50;20.10;;;;;;;4.57;91.84;99480.09;5116643;27;20310;-58
2023/12/13 01:02:42;;;;;;;32.00;20.93;;;;;;;4.57;91.32;99481.78;5106125;27;20200;-56
2023/12/13 01:05:10;;;;;;;31.47;20.20;;;;;;;4.54;91.89;99481.78;5115486;27;20199;-55
2023/12/13 01:07:38;;;;;;;31.83;21.47;;;;;;;4.51;91.85;99481.75;5116367;27;20626;-57
2023/12/13 01:10:07;;;;;;;29.93;19.60;;;;;;;4.48;92.04;99481.75;5108372;27;20196;-55
2023/12/13 01:12:35;;;;;;;30.70;21.00;;;;;;;4.46;92.72;99475.81;5121316;27;20249;-54
2023/12/13 01:15:06;;;;;;;30.73;20.50;;;;;;;4.48;92.58;99476.63;5108972;27;20728;-56
2023/12/13 01:17:34;;;;;;;31.30;20.23;;;;;;;4.52;91.98;99473.25;5107155;27;20236;-56
2023/12/13 01:20:02;;;;;;;30.93;19.87;;;;;;;4.56;92.77;99470.72;5107800;28;20249;-56
2023/12/13 01:22:30;;;;;;;32.03;19.60;;;;;;;4.59;92.54;99464.78;5123076;27;20223;-57
2023/12/13 01:24:58;;;;;;;29.23;19.53;;;;;;;4.60;92.56;99464.78;5101534;27;20699;-56
2023/12/13 01:27:26;;;;;;;30.70;19.77;;;;;;;4.63;92.71;99461.38;5105401;28;20212;-57
2023/12/13 01:29:54;;;;;;;28.13;18.93;;;;;;;4.63;92.35;99458.84;5111443;27;20217;-57
2023/12/13 01:32:24;;;;;;;29.60;19.57;;;;;;;4.64;92.23;99455.47;5116991;27;20200;-56
2023/12/13 01:34:52;;;;;;;28.23;19.17;;;;;;;4.66;92.62;99458.84;5111466;28;20220;-56
2023/12/13 01:37:20;;;;;;;28.07;18.50;;;;;;;4.69;92.29;99455.47;5113060;28;20570;-56
2023/12/13 01:39:48;;;;;;;28.10;19.07;;;;;;;4.68;92.14;99449.50;5114086;27;20208;-55
2023/12/13 01:42:16;;;;;;;29.47;18.43;;;;;;;4.67;91.70;99452.88;5113174;27;20251;-57
2023/12/13 01:44:44;;;;;;;28.03;18.50;;;;;;;4.66;92.10;99443.53;5111405;27;20205;-59
2023/12/13 01:47:13;;;;;;;28.63;18.67;;;;;;;4.61;91.97;99445.25;5118167;27;20199;-57
2023/12/13 01:49:43;;;;;;;29.97;18.40;;;;;;;4.60;91.92;99446.94;5109917;27;20207;-55
2023/12/13 01:52:12;;;;;;;28.10;19.03;;;;;;;4.58;91.78;99457.97;5113263;27;20228;-56
2023/12/13 01:54:40;;;;;;;31.23;19.93;;;;;;;4.56;92.04;99457.09;5116391;27;20233;-57
2023/12/13 01:57:10;;;;;;;27.57;18.70;;;;;;;4.57;92.10;99453.72;5116782;27;20208;-57
2023/12/13 01:59:38;;;;;;;29.53;18.57;;;;;;;4.57;92.13;99452.03;5102013;28;20204;-56
2023/12/13 02:02:07;;;;;;;28.73;19.33;;;;;;;4.59;92.40;99449.47;5119286;27;20293;-55
2023/12/13 02:04:36;;;;;;;29.77;19.43;;;;;;;4.60;92.09;99434.19;5114454;27;20203;-55
2023/12/13 02:07:05;;;;;;;29.90;19.10;;;;;;;4.59;91.92;99441.81;5120586;27;20551;-57
2023/12/13 02:09:33;;;;;;;28.03;18.10;;;;;;;4.62;92.54;99446.94;5107859;27;20243;-56
2023/12/13 02:12:01;;;;;;;26.40;17.70;;;;;;;4.60;91.90;99431.63;5119504;27;20204;-56
2023/12/13 02:14:29;;;;;;;27.03;18.17;;;;;;;4.60;92.11;99425.66;5125773;27;20211;-57
2023/12/13 02:16:57;;;;;;;29.03;18.83;;;;;;;4.55;91.88;99424.78;5106840;27;20204;-51
2023/12/13 02:19:24;;;;;;;28.47;18.07;;;;;;;4.56;92.49;99424.78;5104665;28;20578;-55
2023/12/13 02:21:52;;;;;;;27.23;17.73;;;;;;;4.60;92.75;99425.66;5111969;27;20291;-53
2023/12/13 02:24:24;;;;;;;26.60;18.13;;;;;;;4.58;92.15;99433.31;5118517;27;20223;-52
2023/12/13 02:30:15;;;;;;;27.83;17.93;;;;;;;4.60;92.57;99408.66;5279236;22;20673;-56
2023/12/13 02:32:43;;;;;;;27.30;18.03;;;;;;;4.62;92.64;99412.91;5083729;28;20276;-58
2023/12/13 02:35:11;;;;;;;27.80;18.40;;;;;;;4.58;92.09;99402.69;5085938;28;20637;-57
2023/12/13 02:37:39;;;;;;;29.50;18.97;;;;;;;4.61;92.17;99401.84;5086048;28;20659;-57
2023/12/13 02:40:12;;;;;;;25.90;18.10;;;;;;;4.60;92.21;99402.69;5088671;28;20204;-58
2023/12/13 02:42:40;;;;;;;27.53;18.83;;;;;;;4.61;91.91;99406.97;5088629;28;20251;-57
2023/12/13 02:45:12;;;;;;;27.53;17.93;;;;;;;4.58;92.11;99401.84;5082359;28;20224;-59
2023/12/13 02:47:42;;;;;;;28.33;19.20;;;;;;;4.59;92.50;99408.66;5084871;28;20203;-59
2023/12/13 02:50:11;;;;;;;27.77;18.23;;;;;;;4.58;92.30;99401.84;5081895;28;20232;-57
2023/12/13 02:52:40;;;;;;;29.73;19.67;;;;;;;4.58;92.64;99404.41;5088440;28;20714;-58
2023/12/13 02:55:10;;;;;;;29.03;18.20;;;;;;;4.56;92.47;99395.88;5084250;28;20216;-57
2023/12/13 02:57:38;;;;;;;28.20;17.03;;;;;;;4.56;92.06;99400.97;5090071;28;20243;-58
2023/12/13 03:00:08;;;;;;;26.97;16.67;;;;;;;4.53;92.71;99394.19;5079424;28;20208;-58
2023/12/13 03:02:36;;;;;;;25.97;18.30;;;;;;;4.52;92.69;99383.97;5076791;28;20205;-58
2023/12/13 03:05:05;;;;;;;19.70;13.53;;;;;;;4.52;91.69;99384.81;5082343;28;20193;-56
2023/12/13 03:07:33;;;;;;;20.37;14.73;;;;;;;4.51;91.65;99382.28;5088661;28;20628;-58
2023/12/13 03:10:01;;;;;;;18.73;13.13;;;;;;;4.48;91.58;99380.56;5081635;28;20207;-58
2023/12/13 03:12:31;;;;;;;23.07;15.27;;;;;;;4.49;91.14;99382.28;5084888;28;20292;-58
2023/12/13 03:14:59;;;;;;;23.13;15.70;;;;;;;4.47;91.16;99388.22;5081954;28;20652;-58
2023/12/13 03:17:26;;;;;;;23.53;16.63;;;;;;;4.41;91.36;99389.03;5088221;28;20201;-58
2023/12/13 03:19:54;;;;;;;24.20;14.93;;;;;;;4.40;92.00;99381.41;5085820;28;20679;-58
2023/12/13 03:22:23;;;;;;;24.47;17.10;;;;;;;4.38;91.46;99380.53;5086583;28;20298;-58
2023/12/13 03:24:51;;;;;;;23.83;16.60;;;;;;;4.34;91.71;99380.53;5082380;28;20296;-57
2023/12/13 03:27:19;;;;;;;26.27;17.40;;;;;;;4.29;91.96;99369.47;5086411;28;20232;-58
2023/12/13 03:29:49;;;;;;;26.70;17.23;;;;;;;4.28;92.48;99372.88;5082808;28;20280;-57
2023/12/13 03:32:16;;;;;;;24.63;17.10;;;;;;;4.26;92.42;99382.19;5078606;28;20708;-64
2023/12/13 03:34:44;;;;;;;23.70;15.70;;;;;;;4.27;93.06;99386.47;5088292;28;20201;-60
2023/12/13 03:37:14;;;;;;;24.13;15.57;;;;;;;4.29;92.90;99391.56;5086391;28;20251;-58
2023/12/13 03:39:42;;;;;;;27.90;16.67;;;;;;;4.30;93.19;99373.69;5090964;28;20258;-59
2023/12/13 03:42:10;;;;;;;26.70;17.07;;;;;;;4.32;93.00;99374.56;5089301;28;20201;-59
2023/12/13 03:44:38;;;;;;;25.40;16.60;;;;;;;4.34;92.74;99367.78;5090794;28;20250;-58
2023/12/13 03:47:07;;;;;;;26.03;16.87;;;;;;;4.33;93.20;99371.16;5087474;28;20201;-58
2023/12/13 03:49:35;;;;;;;27.67;17.97;;;;;;;4.35;92.49;99366.09;5090933;28;20678;-59
2023/12/13 03:52:04;;;;;;;29.23;18.17;;;;;;;4.35;92.89;99364.38;5080564;28;20296;-60
2023/12/13 03:54:32;;;;;;;28.80;17.97;;;;;;;4.34;93.05;99375.44;5092609;28;20755;-57
2023/12/13 03:57:00;;;;;;;30.93;18.17;;;;;;;4.33;93.20;99377.97;5083072;28;20224;-57
2023/12/13 03:59:27;;;;;;;31.77;19.07;;;;;;;4.30;93.31;99383.91;5083057;28;20296;-58
2023/12/13 04:01:55;;;;;;;29.47;18.37;;;;;;;4.30;93.37;99381.34;5087240;28;20197;-58
2023/12/13 04:04:25;;;;;;;26.93;17.83;;;;;;;4.32;93.55;99373.72;5091986;28;20197;-57
2023/12/13 04:06:53;;;;;;;29.07;18.23;;;;;;;4.31;92.97;99372.88;5083247;28;20196;-58
2023/12/13 04:09:20;;;;;;;30.37;18.60;;;;;;;4.28;93.45;99370.31;5093425;28;20205;-59
2023/12/13 04:11:48;;;;;;;32.90;19.00;;;;;;;4.28;93.63;99372.03;5085704;28;20207;-58
2023/12/13 04:14:16;;;;;;;28.77;17.53;;;;;;;4.29;93.98;99369.47;5087196;28;20205;-58
2023/12/13 04:16:44;;;;;;;30.63;18.03;;;;;;;4.30;93.96;99378.81;5085365;28;20220;-57
2023/12/13 04:19:12;;;;;;;31.53;18.30;;;;;;;4.33;94.93;99375.41;5091420;28;20647;-59
2023/12/13 04:21:42;;;;;;;32.07;17.90;;;;;;;4.32;94.26;99374.56;5087887;28;20567;-58
2023/12/13 04:24:10;;;;;;;30.17;16.87;;;;;;;4.32;94.41;99363.53;5085195;28;20314;-57
2023/12/13 04:26:39;;;;;;;27.57;17.77;;;;;;;4.33;94.16;99376.28;5082430;28;20214;-56
2023/12/13 04:29:07;;;;;;;30.70;19.07;;;;;;;4.32;93.77;99369.47;5079862;28;20579;-59
2023/12/13 04:31:35;;;;;;;31.97;18.50;;;;;;;4.31;94.66;99380.53;5089808;28;20212;-58
2023/12/13 04:34:03;;;;;;;34.67;19.50;;;;;;;4.31;94.02;99382.22;5085693;28;20201;-61
2023/12/13 04:36:31;;;;;;;34.03;19.23;;;;;;;4.27;94.46;99385.59;5088643;28;20208;-57
2023/12/13 04:39:01;;;;;;;30.87;18.50;;;;;;;4.24;94.22;99378.81;5088366;28;20232;-59
2023/12/13 04:41:28;;;;;;;39.87;21.43;;;;;;;4.22;94.69;99377.09;5087156;28;20212;-58
2023/12/13 04:43:56;;;;;;;39.30;20.63;;;;;;;4.19;94.79;99375.38;5085890;28;20205;-59
2023/12/13 04:46:24;;;;;;;39.40;20.23;;;;;;;4.16;94.68;99374.50;5085464;28;20223;-59
2023/12/13 04:48:52;;;;;;;43.43;21.67;;;;;;;4.15;95.10;99372.81;5080410;28;20533;-64
2023/12/13 04:51:20;;;;;;;42.03;20.97;;;;;;;4.11;95.22;99377.91;5078264;28;20242;-59
2023/12/13 04:53:48;;;;;;;41.77;20.50;;;;;;;4.08;96.32;99377.03;5085760;28;20215;-57
2023/12/13 04:56:17;;;;;;;46.07;21.47;;;;;;;4.05;96.22;99374.47;5087252;28;20266;-58
2023/12/13 04:58:45;;;;;;;43.47;20.17;;;;;;;4.05;96.50;99375.34;5091863;28;20232;-59
2023/12/13 05:01:13;;;;;;;37.57;16.97;;;;;;;4.05;97.09;99371.91;5086359;28;20216;-57
2023/12/13 05:03:41;;;;;;;44.10;21.77;;;;;;;4.03;97.29;99368.53;5087844;28;20201;-58
2023/12/13 05:06:14;;;;;;;42.87;20.77;;;;;;;4.03;97.69;99365.97;5088433;28;20235;-59
2023/12/13 05:08:42;;;;;;;44.23;20.83;;;;;;;4.03;97.75;99371.06;5091918;28;20281;-59
2023/12/13 05:11:10;;;;;;;42.03;18.93;;;;;;;4.04;97.85;99370.22;5086924;28;20241;-58
2023/12/13 05:13:39;;;;;;;43.37;19.97;;;;;;;4.04;97.80;99367.66;5085515;28;20197;-58
2023/12/13 05:16:08;;;;;;;44.20;22.30;;;;;;;4.05;98.20;99359.16;5087997;28;20201;-58
2023/12/13 05:18:36;;;;;;;47.03;20.43;;;;;;;4.03;97.65;99364.28;5081915;28;20204;-58
2023/12/13 05:21:04;;;;;;;45.30;20.57;;;;;;;4.02;97.79;99366.84;5089830;28;20212;-57
2023/12/13 05:23:32;;;;;;;43.30;19.67;;;;;;;4.00;98.20;99360.88;5089460;28;20689;-57
2023/12/13 05:26:00;;;;;;;44.03;18.87;;;;;;;3.99;98.58;99362.56;5087373;28;20204;-58
2023/12/13 05:28:28;;;;;;;53.97;21.47;;;;;;;3.98;98.30;99365.97;5087087;28;20844;-58
2023/12/13 05:30:58;;;;;;;51.73;21.07;;;;;;;3.92;98.72;99358.28;5086865;28;20209;-59
2023/12/13 05:33:27;;;;;;;51.67;20.87;;;;;;;3.91;98.96;99371.03;5084428;28;20209;-57
2023/12/13 05:35:55;;;;;;;47.97;19.77;;;;;;;3.87;99.34;99360.81;5087951;28;20201;-57
2023/12/13 05:38:23;;;;;;;47.83;20.13;;;;;;;3.90;99.98;99369.31;5087598;28;20209;-58
2023/12/13 05:40:51;;;;;;;54.13;21.47;;;;;;;3.85;99.30;99362.50;5083634;28;20674;-57
2023/12/13 05:43:19;;;;;;;58.03;21.27;;;;;;;3.82;99.88;99359.94;5088544;28;20321;-57
2023/12/13 05:45:49;;;;;;;54.17;20.53;;;;;;;3.78;99.93;99354.81;5083397;28;20633;-57
2023/12/13 05:48:19;;;;;;;53.70;21.97;;;;;;;3.78;100.00;99350.56;5083553;28;20625;-58
2023/12/13 05:50:47;;;;;;;53.97;22.27;;;;;;;3.75;100.00;99348.00;5087312;28;20205;-58
2023/12/13 05:53:15;;;;;;;50.33;20.57;;;;;;;3.71;100.00;99348.84;5087746;28;20204;-58
2023/12/13 05:55:43;;;;;;;46.93;20.77;;;;;;;3.71;100.00;99345.44;5083657;28;20220;-58
2023/12/13 05:58:11;;;;;;;48.93;20.70;;;;;;;3.67;100.00;99336.94;5088130;28;20522;-56
2023/12/13 06:00:40;;;;;;;49.10;21.63;;;;;;;3.70;100.00;99328.47;5078608;28;20201;-59
2023/12/13 06:03:09;;;;;;;49.23;20.40;;;;;;;3.72;100.00;99332.72;5089209;28;20201;-57
2023/12/13 06:05:38;;;;;;;55.30;20.77;;;;;;;3.71;100.00;99336.09;5083672;28;20204;-57
2023/12/13 06:08:06;;;;;;;52.30;21.77;;;;;;;3.73;100.00;99336.13;5088879;28;20197;-57
2023/12/13 06:10:35;;;;;;;47.63;21.83;;;;;;;3.71;100.00;99328.47;5091079;28;20295;-59
2023/12/13 06:13:03;;;;;;;49.27;20.83;;;;;;;3.70;100.00;99326.75;5080946;28;20201;-58
2023/12/13 06:15:32;;;;;;;49.67;20.60;;;;;;;3.71;100.00;99328.47;5083615;28;20464;-58
2023/12/13 06:18:00;;;;;;;53.87;21.20;;;;;;;3.72;100.00;99322.53;5087386;28;23191;-58
2023/12/13 06:20:28;;;;;;;49.10;20.80;;;;;;;3.76;100.00;99326.81;5076989;28;20201;-58
2023/12/13 06:22:57;;;;;;;44.23;21.00;;;;;;;3.76;100.00;99325.94;5085500;28;20659;-60
2023/12/13 06:25:25;;;;;;;49.37;20.80;;;;;;;3.77;100.00;99332.75;5085144;28;20207;-57
2023/12/13 06:27:54;;;;;;;50.13;20.57;;;;;;;3.77;100.00;99323.41;5083250;28;20209;-60
2023/12/13 06:30:22;;;;;;;51.07;21.87;;;;;;;3.78;100.00;99330.19;5089629;28;20729;-59
2023/12/13 06:32:51;;;;;;;48.27;20.77;;;;;;;3.79;100.00;99319.19;5082821;28;20333;-58
2023/12/13 06:35:19;;;;;;;51.80;21.37;;;;;;;3.80;100.00;99320.88;5089062;28;20201;-58
2023/12/13 06:37:47;;;;;;;49.87;20.97;;;;;;;3.82;100.00;99321.72;5081721;28;20204;-59
2023/12/13 06:40:18;;;;;;;50.57;20.00;;;;;;;3.84;100.00;99321.72;5083677;28;20208;-59
2023/12/13 06:42:46;;;;;;;48.80;21.67;;;;;;;3.83;100.00;99325.13;5086233;28;20209;-58
2023/12/13 06:45:14;;;;;;;49.03;21.43;;;;;;;3.83;100.00;99327.69;5081617;28;20201;-57
2023/12/13 06:47:42;;;;;;;47.17;21.90;;;;;;;3.82;100.00;99328.50;5085060;28;20216;-58
2023/12/13 06:50:11;;;;;;;50.83;21.87;;;;;;;3.79;100.00;99321.72;5090043;28;20224;-58
2023/12/13 06:52:39;;;;;;;46.00;21.60;;;;;;;3.81;100.00;99319.16;5081306;28;20201;-59
2023/12/13 06:55:07;;;;;;;46.20;20.90;;;;;;;3.84;100.00;99319.19;5084567;28;20201;-59
2023/12/13 06:57:37;;;;;;;50.40;21.13;;;;;;;3.85;100.00;99316.63;5086813;28;20216;-58
2023/12/13 07:00:08;;;;;;;50.50;22.43;;;;;;;3.85;100.00;99318.34;5087057;28;20250;-59
2023/12/13 07:02:37;;;;;;;52.07;22.27;;;;;;;3.87;100.00;99319.22;5080722;28;20615;-58
2023/12/13 07:05:07;;;;;;;47.43;21.50;;;;;;;3.88;100.00;99309.00;5080432;28;20203;-58
2023/12/13 07:07:35;;;;;;;51.30;21.90;;;;;;;3.92;100.00;99309.88;5085239;28;20313;-58
2023/12/13 07:10:05;;;;;;;51.20;21.90;;;;;;;3.94;100.00;99309.84;5078528;28;20205;-58
2023/12/13 07:12:32;;;;;;;52.23;21.93;;;;;;;3.96;100.00;99313.28;5080409;28;20211;-58
2023/12/13 07:15:03;;;;;;;55.80;24.97;;;;;;;3.97;100.00;99309.88;5082033;28;20565;-58
2023/12/13 07:17:31;;;;;;;55.83;22.60;;;;;;;3.99;100.00;99309.03;5083091;28;20217;-58
2023/12/13 07:19:59;;;;;;;57.33;22.60;;;;;;;4.01;100.00;99314.13;5086747;28;20207;-59
2023/12/13 07:22:27;;;;;;;53.40;23.20;;;;;;;4.01;99.71;99312.44;5084508;28;20208;-58
2023/12/13 07:24:56;;;;;;;55.13;24.00;;;;;;;4.00;99.48;99308.19;5084219;28;20205;-61
2023/12/13 07:27:24;;;;;;;47.70;22.57;;;;;;;3.97;99.22;99310.72;5087490;28;20687;-58
2023/12/13 07:29:52;;;;;;;53.03;22.53;;;;;;;3.96;99.10;99308.19;5084903;28;20402;-58
2023/12/13 07:32:21;;;;;;;47.20;22.87;;;;;;;3.93;99.28;99310.72;5085440;28;20987;-60
2023/12/13 07:34:49;;;;;;;52.97;24.03;;;;;;;3.93;99.72;99316.66;5078196;28;20645;-58
2023/12/13 07:37:18;;;;;;;48.83;22.83;;;;;;;3.92;98.97;99311.56;5084328;28;20208;-59
2023/12/13 07:39:46;;;;;;;49.77;23.87;;;;;;;3.88;99.39;99306.44;5085974;28;20217;-56
2023/12/13 07:42:14;;;;;;;47.30;22.37;;;;;;;3.85;99.08;99308.97;5087139;28;20208;-58
2023/12/13 07:44:42;;;;;;;52.90;23.10;;;;;;;3.85;99.59;99305.59;5088071;28;20655;-59
2023/12/13 07:47:10;;;;;;;47.57;22.83;;;;;;;3.86;99.41;99308.13;5081970;28;20234;-58
2023/12/13 07:49:40;;;;;;;48.17;23.87;;;;;;;3.83;98.62;99304.75;5086295;28;20540;-58
2023/12/13 07:52:08;;;;;;;45.00;23.97;;;;;;;3.78;99.38;99309.81;5089794;28;20717;-59
2023/12/13 07:54:36;;;;;;;49.43;22.63;;;;;;;3.77;99.55;99308.13;5078148;28;20674;-58
2023/12/13 07:57:04;;;;;;;53.93;23.87;;;;;;;3.73;100.00;99311.50;5088260;28;20671;-58
2023/12/13 07:59:32;;;;;;;53.10;23.37;;;;;;;3.72;99.60;99304.72;5084759;28;20548;-58
2023/12/13 08:02:00;;;;;;;55.40;24.33;;;;;;;3.72;100.00;99311.47;5080822;28;20651;-58
2023/12/13 08:04:29;;;;;;;51.00;23.83;;;;;;;3.75;100.00;99306.41;5080154;28;20757;-57
2023/12/13 08:06:59;;;;;;;49.03;24.20;;;;;;;3.73;99.66;99313.19;5082522;28;20712;-58
2023/12/13 08:09:26;;;;;;;54.37;23.57;;;;;;;3.73;99.97;99314.03;5089658;28;20212;-59
2023/12/13 08:11:54;;;;;;;52.57;23.93;;;;;;;3.72;100.00;99309.81;5082802;28;20673;-59
2023/12/13 08:14:26;;;;;;;51.87;23.17;;;;;;;3.75;100.00;99309.78;5079604;28;20666;-59
2023/12/13 08:16:54;;;;;;;52.27;22.77;;;;;;;3.75;99.83;99302.16;5080941;28;20212;-58
2023/12/13 08:19:22;;;;;;;50.70;23.53;;;;;;;3.75;99.65;99303.84;5089587;28;20653;-60
2023/12/13 08:21:51;;;;;;;52.37;24.53;;;;;;;3.72;99.68;99293.63;5082798;28;20202;-58
2023/12/13 08:24:21;;;;;;;59.10;26.50;;;;;;;3.73;99.92;99301.31;5084541;28;20197;-58
2023/12/13 08:26:48;;;;;;;68.30;27.37;;;;;;;3.73;100.00;99301.31;5081744;28;20198;-63
2023/12/13 08:29:16;;;;;;;54.33;24.57;;;;;;;3.72;99.49;99296.19;5084450;28;20278;-58
2023/12/13 08:31:45;;;;;;;53.43;25.57;;;;;;;3.70;100.00;99301.28;5082509;28;20241;-61
2023/12/13 08:34:13;;;;;;;57.07;26.40;;;;;;;3.72;100.00;99294.50;5085192;28;20206;-60
2023/12/13 08:36:41;;;;;;;60.77;26.70;;;;;;;3.74;99.99;99295.34;5088708;28;20258;-61
2023/12/13 08:39:09;;;;;;;54.37;26.33;;;;;;;3.73;99.74;99290.28;5089943;28;20606;-59
2023/12/13 08:41:39;;;;;;;59.80;28.10;;;;;;;3.77;100.00;99286.88;5088934;28;20204;-60
2023/12/13 08:44:07;;;;;;;61.90;27.00;;;;;;;3.79;100.00;99283.50;5088660;28;20193;-59
2023/12/13 08:46:35;;;;;;;63.33;27.93;;;;;;;3.81;100.00;99284.34;5089109;28;20219;-60
2023/12/13 08:49:04;;;;;;;57.63;26.10;;;;;;;3.84;100.00;99289.47;5086448;28;20208;-60
2023/12/13 08:51:32;;;;;;;57.10;27.07;;;;;;;3.87;99.44;99289.47;5089024;28;20573;-58
2023/12/13 08:54:00;;;;;;;62.70;28.97;;;;;;;3.87;98.74;99286.94;5086874;28;20716;-60
2023/12/13 08:56:28;;;;;;;60.80;27.23;;;;;;;3.87;98.95;99291.19;5085821;28;20348;-59
2023/12/13 08:58:58;;;;;;;56.27;26.23;;;;;;;3.92;99.23;99291.19;5078657;28;20682;-59
2023/12/13 09:01:28;;;;;;;64.47;28.47;;;;;;;3.93;98.87;99293.72;5083839;28;20566;-61
2023/12/13 09:03:56;;;;;;;60.00;29.03;;;;;;;3.94;99.01;99297.13;5082360;28;20234;-58
2023/12/13 09:06:24;;;;;;;57.07;27.80;;;;;;;3.94;98.37;99297.13;5087480;28;20432;-59
2023/12/13 09:08:53;;;;;;;59.63;27.63;;;;;;;3.94;98.56;99294.56;5084295;28;20236;-56
2023/12/13 09:11:21;;;;;;;55.20;26.27;;;;;;;3.95;98.23;99288.66;5082752;28;20655;-57
2023/12/13 09:13:50;;;;;;;59.30;27.93;;;;;;;3.94;97.69;99289.47;5093393;28;20647;-60
2023/12/13 09:16:19;;;;;;;63.67;30.80;;;;;;;3.92;98.11;99283.53;5093089;28;20283;-60
2023/12/13 09:18:47;;;;;;;69.73;33.10;;;;;;;3.92;98.46;99281.84;5092126;28;20217;-59
2023/12/13 09:21:15;;;;;;;66.20;29.00;;;;;;;3.93;98.49;99275.88;5092959;28;20204;-58
2023/12/13 09:23:43;;;;;;;60.30;29.40;;;;;;;3.97;98.58;99287.78;5093143;28;20673;-61
2023/12/13 09:26:13;;;;;;;60.07;31.47;;;;;;;3.99;97.84;99278.44;5093402;28;20202;-60
2023/12/13 09:28:42;;;;;;;54.93;28.27;;;;;;;3.98;98.05;99276.75;5092038;28;20260;-58
2023/12/13 09:31:11;;;;;;;59.93;29.33;;;;;;;4.01;98.00;99275.91;5091641;28;20196;-58
2023/12/13 09:33:40;;;;;;;57.63;28.97;;;;;;;4.01;98.39;99270.78;5088739;28;20675;-58
2023/12/13 09:36:09;;;;;;;61.20;29.33;;;;;;;4.04;98.29;99268.25;5090026;28;20246;-59
2023/12/13 09:38:37;;;;;;;63.47;29.80;;;;;;;4.05;97.87;99267.41;5092634;28;20266;-57
2023/12/13 09:41:06;;;;;;;60.53;30.90;;;;;;;4.04;96.95;99271.66;5092992;28;20211;-58
2023/12/13 09:43:41;;;;;;;53.60;30.37;;;;;;;3.98;96.36;99255.53;5092494;28;20204;-59
2023/12/13 09:46:13;;;;;;;61.20;31.77;;;;;;;3.95;96.56;99264.00;5091836;28;20207;-59
2023/12/13 09:48:44;;;;;;;58.87;30.00;;;;;;;3.94;96.53;99269.97;5092627;28;20208;-57
2023/12/13 09:51:13;;;;;;;57.60;30.93;;;;;;;3.93;96.60;99263.13;5092132;28;20209;-62
2023/12/13 09:53:43;;;;;;;55.63;30.23;;;;;;;3.93;96.51;99254.66;5092602;28;20670;-58
2023/12/13 09:56:12;;;;;;;53.53;29.30;;;;;;;3.97;95.81;99264.00;5092001;28;20626;-60
2023/12/13 09:58:41;;;;;;;59.33;31.40;;;;;;;3.94;95.74;99258.88;5092360;28;20200;-59
2023/12/13 10:01:10;;;;;;;63.20;32.27;;;;;;;3.95;95.93;99261.47;5092400;28;20542;-58
2023/12/13 10:03:39;;;;;;;63.43;32.27;;;;;;;3.96;96.22;99252.94;5078236;28;20659;-59
2023/12/13 10:06:10;;;;;;;63.60;31.43;;;;;;;4.01;96.59;99261.44;5090385;28;20726;-59
2023/12/13 10:08:38;;;;;;;58.77;32.73;;;;;;;4.07;96.80;99252.97;5090346;28;20213;-58
2023/12/13 10:11:07;;;;;;;55.70;31.40;;;;;;;4.11;95.81;99252.13;5079845;28;20591;-59
2023/12/13 10:13:35;;;;;;;54.50;30.10;;;;;;;4.06;94.30;99247.03;5091804;28;20205;-57
2023/12/13 10:16:10;;;;;;;57.90;30.13;;;;;;;4.05;94.34;99247.91;5091562;28;20606;-62
2023/12/13 10:18:40;;;;;;;55.87;30.50;;;;;;;4.04;94.83;99250.41;5085646;28;20208;-63
2023/12/13 10:21:10;;;;;;;61.07;32.37;;;;;;;4.05;94.61;99252.13;5091878;28;20255;-62
2023/12/13 10:23:40;;;;;;;63.87;32.33;;;;;;;4.00;93.57;99243.63;5092170;28;20204;-61
2023/12/13 10:26:09;;;;;;;54.77;32.40;;;;;;;3.97;93.82;99248.72;5090854;28;20192;-63
2023/12/13 10:28:37;;;;;;;56.93;31.70;;;;;;;3.94;94.41;99252.13;5091604;28;20269;-61
2023/12/13 10:31:05;;;;;;;61.80;31.70;;;;;;;3.95;94.26;99252.97;5091778;28;20207;-61
2023/12/13 10:33:34;;;;;;;56.17;33.03;;;;;;;3.91;93.64;99258.91;5085051;28;20654;-62
2023/12/13 10:36:03;;;;;;;60.93;33.47;;;;;;;3.85;94.36;99263.13;5091352;28;20205;-64
2023/12/13 10:38:33;;;;;;;64.93;33.73;;;;;;;3.84;94.77;99258.88;5092115;28;20208;-62
2023/12/13 10:41:03;;;;;;;66.93;35.03;;;;;;;3.84;94.42;99255.47;5092140;28;20224;-62
2023/12/13 10:43:33;;;;;;;59.60;33.20;;;;;;;3.81;95.08;99263.97;5090931;28;20299;-63
2023/12/13 10:46:02;;;;;;;60.77;33.60;;;;;;;3.80;94.25;99252.06;5090344;28;20227;-63
2023/12/13 10:48:33;;;;;;;57.10;33.50;;;;;;;3.77;94.75;99249.50;5091900;28;20204;-62
2023/12/13 10:51:03;;;;;;;58.73;32.20;;;;;;;3.80;95.08;99246.97;5091683;28;20258;-58
2023/12/13 10:53:34;;;;;;;61.90;32.43;;;;;;;3.79;94.51;99245.28;5091472;28;20197;-58
2023/12/13 10:56:04;;;;;;;54.50;30.77;;;;;;;3.79;94.71;99240.19;5076841;28;20672;-59
2023/12/13 10:58:33;;;;;;;53.57;31.73;;;;;;;3.77;94.39;99241.88;5059718;28;20292;-57
2023/12/13 11:01:02;;;;;;;50.97;31.33;;;;;;;3.76;94.66;99235.09;5091209;28;20249;-57
2023/12/13 11:03:38;;;;;;;53.47;30.87;;;;;;;3.76;94.78;99240.19;5090749;28;20281;-58
2023/12/13 11:06:08;;;;;;;56.10;30.67;;;;;;;3.79;94.76;99230.00;5091173;28;20205;-58
2023/12/13 11:08:43;;;;;;;55.00;30.37;;;;;;;3.81;94.01;99227.44;5086882;28;20208;-57
2023/12/13 11:11:13;;;;;;;48.20;29.43;;;;;;;3.76;93.30;99235.09;5091652;28;20204;-58
2023/12/13 11:13:47;;;;;;;46.60;28.70;;;;;;;3.77;94.09;99225.72;5091292;28;20573;-56
2023/12/13 11:16:16;;;;;;;48.63;29.27;;;;;;;3.84;94.30;99227.44;5091188;28;20200;-57
2023/12/13 11:18:46;;;;;;;50.47;30.10;;;;;;;3.87;93.59;99220.66;5090485;28;20213;-55
2023/12/13 11:21:24;;;;;;;48.63;28.87;;;;;;;3.91;92.88;99223.22;5091192;28;20257;-57
2023/12/13 11:23:54;;;;;;;48.87;28.83;;;;;;;3.87;92.75;99218.13;5090967;28;20236;-57
2023/12/13 11:26:23;;;;;;;48.57;30.87;;;;;;;3.85;92.73;99214.69;5091581;28;20209;-59
2023/12/13 11:28:54;;;;;;;56.30;31.67;;;;;;;3.84;92.00;99212.16;5090399;28;20260;-59
2023/12/13 11:31:23;;;;;;;51.57;32.50;;;;;;;3.79;92.20;99217.25;5077471;28;20284;-57
2023/12/13 11:33:54;;;;;;;52.77;32.40;;;;;;;3.75;92.57;99205.31;5086942;28;20201;-57